Time;durP1;ratioP1;P1;durP2;ratioP2;P2;SDS_P1;SDS_P2;PMS_P1;PMS_P2;Temp;Humidity;BMP_temperature;BMP_pressure;BME280_temperature;BME280_humidity;BME280_pressure;Samples;Min_cycle;Max_cycle;Signal;HPM_P1;HPM_P2
2023/11/21 11:39:51;;;;;;;7.00;4.17;;;;;;;;;;5100384;22;20454;-79
2023/11/21 11:42:22;;;;;;;5.60;3.97;;;;;;;;;;5108985;28;20449;-78
2023/11/21 11:44:55;;;;;;;8.67;3.53;;;;;;;;;;5105181;28;20545;-78
2023/11/21 11:47:32;;;;;;;4.90;3.73;;;;;;;;;;5104862;28;20459;-78
2023/11/21 11:50:04;;;;;;;8.20;4.70;;;;;;;;;;5099082;28;20459;-78
2023/11/21 11:52:39;;;;;;;7.33;4.43;;;;;;;;;;5114697;28;20470;-79
2023/11/21 11:55:14;;;;;;;4.27;3.07;;;;;;;;;;5113417;28;20530;-78
2023/11/21 11:57:44;;;;;;;4.90;3.10;;;;;;;;;;5112586;28;20498;-78
2023/11/21 12:03:04;;;;;;;8.07;4.70;;;;;;;;;;5099984;28;20455;-78
2023/11/21 12:05:35;;;;;;;7.80;4.10;;;;;;;;;;5096860;28;20897;-78
2023/11/21 12:08:03;;;;;;;7.70;4.03;;;;;;;;;;5106119;28;20550;-79
2023/11/21 12:10:34;;;;;;;7.93;5.73;;;;;;;;;;5097262;28;20448;-78
2023/11/21 12:13:09;;;;;;;7.47;4.13;;;;;;;;;;5106523;28;20490;-79
2023/11/21 12:15:40;;;;;;;7.20;4.00;;;;;;;;;;5102152;28;20689;-79
2023/11/21 12:18:07;;;;;;;5.83;3.57;;;;;;;;;;5110001;27;20555;-79
2023/11/21 12:20:38;;;;;;;6.20;3.83;;;;;;;;;;5107482;28;20427;-78
2023/11/21 12:23:08;;;;;;;4.40;3.37;;;;;;;;;;5104805;28;20507;-78
2023/11/21 12:25:36;;;;;;;5.40;3.13;;;;;;;;;;5102717;28;20458;-79
2023/11/21 12:28:06;;;;;;;6.00;3.80;;;;;;;;;;5110454;28;20447;-78
2023/11/21 12:30:41;;;;;;;5.60;3.43;;;;;;;;;;5103910;28;20444;-78
2023/11/21 12:33:11;;;;;;;5.37;3.57;;;;;;;;;;5106957;28;20482;-78
2023/11/21 12:35:39;;;;;;;5.07;3.30;;;;;;;;;;5109872;28;20871;-78
2023/11/21 12:38:08;;;;;;;6.93;3.93;;;;;;;;;;5101517;28;20452;-78
2023/11/21 12:40:36;;;;;;;6.73;3.80;;;;;;;;;;5114017;28;20565;-78
2023/11/21 12:43:06;;;;;;;15.67;8.50;;;;;;;;;;5118469;28;20466;-78
2023/11/21 12:45:35;;;;;;;4.57;3.37;;;;;;;;;;5117591;27;20601;-78
2023/11/21 12:48:07;;;;;;;9.10;4.77;;;;;;;;;;5106945;28;20481;-79
2023/11/21 12:50:36;;;;;;;4.77;3.33;;;;;;;;;;5107721;28;20438;-78
2023/11/21 12:56:00;;;;;;;9.07;4.60;;;;;;;;;;5116131;28;20459;-79
2023/11/21 12:58:29;;;;;;;4.83;3.83;;;;;;;;;;5117156;28;20455;-78
2023/11/21 13:00:59;;;;;;;6.50;4.23;;;;;;;;;;5112711;28;20451;-79
2023/11/21 13:03:27;;;;;;;7.13;3.63;;;;;;;;;;5123599;28;20455;-79
2023/11/21 13:05:56;;;;;;;34.37;26.50;;;;;;;;;;5110302;28;20447;-78
2023/11/21 13:08:30;;;;;;;5.07;3.67;;;;;;;;;;5121143;28;20466;-79
2023/11/21 13:11:01;;;;;;;6.90;3.40;;;;;;;;;;5103645;28;20792;-79
2023/11/21 13:13:31;;;;;;;5.83;3.60;;;;;;;;;;5105122;28;20610;-78
2023/11/21 13:16:04;;;;;;;7.90;4.50;;;;;;;;;;5111861;28;20467;-78
2023/11/21 13:18:32;;;;;;;5.83;3.67;;;;;;;;;;5109729;28;20451;-77
2023/11/21 13:21:02;;;;;;;6.90;4.20;;;;;;;;;;5111566;28;20458;-78
2023/11/21 13:23:37;;;;;;;6.80;3.40;;;;;;;;;;5111741;28;20470;-78
2023/11/21 13:26:05;;;;;;;6.17;4.30;;;;;;;;;;5106465;28;20520;-77
2023/11/21 13:28:35;;;;;;;4.60;3.60;;;;;;;;;;5106569;28;20493;-78
2023/11/21 13:31:09;;;;;;;6.33;3.90;;;;;;;;;;5101310;28;20459;-78
2023/11/21 13:33:55;;;;;;;7.03;3.97;;;;;;;;;;5105261;28;20466;-78
2023/11/21 13:36:31;;;;;;;7.13;4.10;;;;;;;;;;5112766;28;20806;-78
2023/11/21 13:39:04;;;;;;;5.00;3.60;;;;;;;;;;5120264;28;20474;-79
2023/11/21 13:41:32;;;;;;;4.60;3.47;;;;;;;;;;5122155;28;20986;-79
2023/11/21 13:44:15;;;;;;;7.60;4.83;;;;;;;;;;5119238;28;20443;-79
2023/11/21 13:46:46;;;;;;;4.60;3.80;;;;;;;;;;5121290;28;20465;-77
2023/11/21 13:49:18;;;;;;;5.07;3.67;;;;;;;;;;5107397;28;20474;-78
2023/11/21 13:51:50;;;;;;;6.20;4.20;;;;;;;;;;5115982;28;20462;-79
2023/11/21 13:54:19;;;;;;;6.40;4.33;;;;;;;;;;5123036;28;20482;-78
2023/11/21 13:56:50;;;;;;;6.57;3.70;;;;;;;;;;5122828;28;20453;-79
2023/11/21 13:59:25;;;;;;;10.57;3.20;;;;;;;;;;5127914;28;20442;-79
2023/11/21 14:01:57;;;;;;;5.50;3.83;;;;;;;;;;5109830;28;20473;-77
2023/11/21 14:04:46;;;;;;;6.37;3.67;;;;;;;;;;5106271;28;20444;-77
2023/11/21 14:07:25;;;;;;;5.43;3.47;;;;;;;;;;5104665;28;20440;-78
2023/11/21 14:09:53;;;;;;;5.77;3.97;;;;;;;;;;5107296;28;20455;-78
2023/11/21 14:12:21;;;;;;;5.07;4.00;;;;;;;;;;5117445;28;20454;-79
2023/11/21 14:14:50;;;;;;;5.40;4.03;;;;;;;;;;5123379;28;20479;-78
2023/11/21 14:17:22;;;;;;;8.53;4.30;;;;;;;;;;5120216;28;20458;-80
2023/11/21 14:19:51;;;;;;;8.50;5.03;;;;;;;;;;5105581;28;20455;-78
2023/11/21 14:22:21;;;;;;;5.00;3.70;;;;;;;;;;5106468;28;20471;-78
2023/11/21 14:24:52;;;;;;;6.13;4.80;;;;;;;;;;5119263;28;20466;-78
2023/11/21 14:27:19;;;;;;;7.60;5.40;;;;;;;;;;5104969;28;20469;-78
2023/11/21 14:29:52;;;;;;;6.23;3.63;;;;;;;;;;5111960;28;20459;-79
2023/11/21 14:32:30;;;;;;;5.37;3.60;;;;;;;;;;5108170;28;20554;-79
2023/11/21 14:34:58;;;;;;;6.03;4.43;;;;;;;;;;5104731;28;20544;-79
2023/11/21 14:37:26;;;;;;;8.70;4.70;;;;;;;;;;5117213;28;20466;-79
2023/11/21 14:39:55;;;;;;;6.27;4.03;;;;;;;;;;5108014;28;20455;-78
2023/11/21 14:45:14;;;;;;;5.70;3.70;;;;;;;;;;5107275;27;20467;-77
2023/11/21 14:47:49;;;;;;;8.30;4.30;;;;;;;;;;5107462;28;21278;-78
2023/11/21 14:53:05;;;;;;;6.50;3.80;;;;;;;;;;5116178;28;20483;-77
2023/11/21 14:55:39;;;;;;;5.60;3.33;;;;;;;;;;5119920;28;20480;-78
2023/11/21 14:58:12;;;;;;;5.30;3.93;;;;;;;;;;5116722;28;20444;-77
2023/11/21 15:00:44;;;;;;;6.40;3.50;;;;;;;;;;5099014;28;20473;-78
2023/11/21 15:03:31;;;;;;;6.83;4.30;;;;;;;;;;5095245;28;20448;-78
2023/11/21 15:05:57;;;;;;;8.83;4.10;;;;;;;;;;5092099;28;20594;-78
2023/11/21 15:08:31;;;;;;;6.63;4.37;;;;;;;;;;5102735;28;20446;-78
2023/11/21 15:10:58;;;;;;;9.63;5.67;;;;;;;;;;5110793;28;20465;-78
2023/11/21 15:13:28;;;;;;;10.97;4.57;;;;;;;;;;5114529;28;20505;-77
2023/11/21 15:16:03;;;;;;;6.03;4.60;;;;;;;;;;5112003;28;20461;-78
2023/11/21 15:18:31;;;;;;;7.60;4.87;;;;;;;;;;5097070;28;20455;-77
2023/11/21 15:20:59;;;;;;;6.70;3.80;;;;;;;;;;5101896;28;20451;-79
2023/11/21 15:23:30;;;;;;;6.40;3.80;;;;;;;;;;5115168;28;20494;-79
2023/11/21 15:25:58;;;;;;;5.97;3.63;;;;;;;;;;5096329;28;20490;-78
2023/11/21 15:28:26;;;;;;;6.83;4.63;;;;;;;;;;5095872;28;20492;-79
2023/11/21 15:30:53;;;;;;;9.00;4.67;;;;;;;;;;5089023;28;20444;-79
2023/11/21 15:33:22;;;;;;;5.87;4.10;;;;;;;;;;5089804;28;20468;-78
2023/11/21 15:35:50;;;;;;;7.40;4.00;;;;;;;;;;5093071;28;20448;-79
2023/11/21 15:38:18;;;;;;;8.07;3.67;;;;;;;;;;5093906;28;20782;-78
2023/11/21 15:40:46;;;;;;;6.67;4.33;;;;;;;;;;5093655;28;20491;-80
2023/11/21 15:43:13;;;;;;;8.87;3.73;;;;;;;;;;5098689;28;20524;-79
2023/11/21 15:45:41;;;;;;;7.07;3.37;;;;;;;;;;5096067;28;20443;-79
2023/11/21 15:48:10;;;;;;;15.03;7.77;;;;;;;;;;5094900;28;20452;-78
2023/11/21 15:50:39;;;;;;;7.90;4.67;;;;;;;;;;5091921;28;20471;-77
2023/11/21 15:53:07;;;;;;;18.10;7.10;;;;;;;;;;5095728;28;20493;-77
2023/11/21 15:55:36;;;;;;;5.73;4.30;;;;;;;;;;5099324;28;20726;-78
2023/11/21 15:58:06;;;;;;;6.83;3.20;;;;;;;;;;5120689;28;20465;-78
2023/11/21 16:00:34;;;;;;;5.47;3.43;;;;;;;;;;5115378;28;20606;-78
2023/11/21 16:03:01;;;;;;;7.10;3.20;;;;;;;;;;5117616;28;20450;-78
2023/11/21 16:05:30;;;;;;;6.20;4.07;;;;;;;;;;5116719;28;20439;-79
2023/11/21 16:07:59;;;;;;;7.27;4.13;;;;;;;;;;5120663;28;20470;-79
2023/11/21 16:10:26;;;;;;;5.97;4.00;;;;;;;;;;5115783;28;20739;-78
2023/11/21 16:12:54;;;;;;;6.53;3.53;;;;;;;;;;5119657;28;20454;-78
2023/11/21 16:15:22;;;;;;;12.03;6.40;;;;;;;;;;5118184;28;20479;-79
2023/11/21 16:17:50;;;;;;;6.03;3.33;;;;;;;;;;5116083;28;20442;-77
2023/11/21 16:20:18;;;;;;;5.40;4.20;;;;;;;;;;5104148;28;20857;-77
2023/11/21 16:22:45;;;;;;;4.90;3.40;;;;;;;;;;5099557;28;20517;-78
2023/11/21 16:25:15;;;;;;;10.80;5.37;;;;;;;;;;5103988;28;20447;-79
2023/11/21 16:27:43;;;;;;;7.47;4.30;;;;;;;;;;5107458;28;20518;-78
2023/11/21 16:30:11;;;;;;;6.43;3.23;;;;;;;;;;5098759;28;20447;-78
2023/11/21 16:32:39;;;;;;;4.07;2.83;;;;;;;;;;5100579;28;20450;-78
2023/11/21 16:35:09;;;;;;;5.07;3.23;;;;;;;;;;5097798;28;20471;-78
2023/11/21 16:37:37;;;;;;;4.83;3.00;;;;;;;;;;5110122;28;20446;-78
2023/11/21 16:40:08;;;;;;;6.27;2.77;;;;;;;;;;5098738;28;20491;-77
2023/11/21 16:42:38;;;;;;;5.70;3.20;;;;;;;;;;5094147;28;20463;-77
2023/11/21 16:45:06;;;;;;;8.37;5.87;;;;;;;;;;5111363;28;20463;-78
2023/11/21 16:47:35;;;;;;;5.80;3.37;;;;;;;;;;5122097;28;20450;-78
2023/11/21 16:50:06;;;;;;;5.90;3.10;;;;;;;;;;5120834;28;20547;-77
2023/11/21 16:52:33;;;;;;;5.47;3.00;;;;;;;;;;5118497;28;20446;-77
2023/11/21 16:55:01;;;;;;;5.10;3.80;;;;;;;;;;5117140;28;20585;-78
2023/11/21 16:57:44;;;;;;;5.00;3.50;;;;;;;;;;5127178;28;20435;-78
2023/11/21 17:03:27;;;;;;;3.50;2.70;;;;;;;;;;5118270;27;21170;-78
2023/11/21 17:05:55;;;;;;;5.30;2.80;;;;;;;;;;5135313;27;20449;-79
2023/11/21 17:08:24;;;;;;;4.27;2.93;;;;;;;;;;5142926;27;20450;-79
2023/11/21 17:10:52;;;;;;;5.60;3.33;;;;;;;;;;5105440;28;20759;-77
2023/11/21 17:13:21;;;;;;;5.10;2.90;;;;;;;;;;5118120;28;20439;-77
2023/11/21 17:15:49;;;;;;;6.10;3.17;;;;;;;;;;5121898;28;20555;-78
2023/11/21 17:18:17;;;;;;;5.50;3.47;;;;;;;;;;5118463;28;20446;-78
2023/11/21 17:20:46;;;;;;;5.23;3.13;;;;;;;;;;5119483;28;20473;-78
2023/11/21 17:23:13;;;;;;;4.33;2.30;;;;;;;;;;5119657;28;20454;-77
2023/11/21 17:25:41;;;;;;;3.33;2.37;;;;;;;;;;5119013;28;20506;-79
2023/11/21 17:28:09;;;;;;;4.47;2.43;;;;;;;;;;5120733;28;20769;-80
2023/11/21 17:30:41;;;;;;;5.87;3.30;;;;;;;;;;5120299;27;20473;-76
2023/11/21 17:33:08;;;;;;;3.30;2.43;;;;;;;;;;5118174;28;20442;-78
2023/11/21 17:35:36;;;;;;;5.67;4.20;;;;;;;;;;5120129;28;20488;-77
2023/11/21 17:38:03;;;;;;;5.90;3.43;;;;;;;;;;5115354;28;20913;-78
2023/11/21 17:40:31;;;;;;;8.80;5.80;;;;;;;;;;5118086;28;20627;-78
2023/11/21 17:42:58;;;;;;;5.80;2.90;;;;;;;;;;5116738;28;20451;-77
2023/11/21 17:45:26;;;;;;;6.60;4.30;;;;;;;;;;5118787;28;20533;-78
2023/11/21 17:47:55;;;;;;;4.30;2.57;;;;;;;;;;5118499;28;20898;-78
2023/11/21 17:50:23;;;;;;;5.30;2.20;;;;;;;;;;5117432;28;20449;-78
2023/11/21 17:52:51;;;;;;;4.60;1.90;;;;;;;;;;5116130;28;20458;-79
2023/11/21 17:55:19;;;;;;;4.13;2.53;;;;;;;;;;5116048;28;20501;-77
2023/11/21 17:57:46;;;;;;;3.80;2.17;;;;;;;;;;5114348;28;20475;-78
2023/11/21 18:00:18;;;;;;;5.47;2.50;;;;;;;;;;5121827;28;20493;-81
2023/11/21 18:02:49;;;;;;;3.80;2.00;;;;;;;;;;5121802;28;20577;-77
2023/11/21 18:05:23;;;;;;;7.00;3.17;;;;;;;;;;5119348;28;21240;-80
2023/11/21 18:07:51;;;;;;;5.00;2.50;;;;;;;;;;5118123;28;20443;-80
2023/11/21 18:10:19;;;;;;;3.63;2.03;;;;;;;;;;5124583;27;20465;-78
2023/11/21 18:12:47;;;;;;;6.07;2.90;;;;;;;;;;5127281;27;20469;-77
2023/11/21 18:15:18;;;;;;;4.10;2.43;;;;;;;;;;5129751;27;20549;-79
2023/11/21 18:17:47;;;;;;;4.87;2.37;;;;;;;;;;5136782;27;20461;-78
2023/11/21 18:20:22;;;;;;;5.70;2.67;;;;;;;;;;5123631;27;20473;-77
2023/11/21 18:22:50;;;;;;;4.50;2.40;;;;;;;;;;5120515;28;20459;-80
2023/11/21 18:25:20;;;;;;;6.53;3.33;;;;;;;;;;5118652;28;20526;-78
2023/11/21 18:27:48;;;;;;;5.97;3.13;;;;;;;;;;5123478;27;20561;-77
2023/11/21 18:30:17;;;;;;;6.70;3.13;;;;;;;;;;5116408;28;20506;-77
2023/11/21 18:32:45;;;;;;;5.90;3.30;;;;;;;;;;5121065;28;20450;-76
2023/11/21 18:35:12;;;;;;;5.63;3.20;;;;;;;;;;5131921;27;20521;-76
2023/11/21 18:37:42;;;;;;;6.00;3.20;;;;;;;;;;5124081;28;21210;-77
2023/11/21 18:40:10;;;;;;;6.03;3.43;;;;;;;;;;5123133;27;20447;-79
2023/11/21 18:42:39;;;;;;;8.07;4.50;;;;;;;;;;5141967;27;20528;-78
2023/11/21 18:45:08;;;;;;;5.50;3.27;;;;;;;;;;5120059;28;20474;-76
2023/11/21 18:47:39;;;;;;;7.93;4.53;;;;;;;;;;5120996;27;20985;-77
2023/11/21 18:50:20;;;;;;;6.87;3.77;;;;;;;;;;5126760;27;20473;-78
2023/11/21 18:52:50;;;;;;;4.57;2.40;;;;;;;;;;5121432;28;20438;-78
2023/11/21 18:55:18;;;;;;;3.77;2.30;;;;;;;;;;5123396;28;20506;-79
2023/11/21 18:57:46;;;;;;;7.40;2.73;;;;;;;;;;5139978;27;20465;-78
2023/11/21 19:00:17;;;;;;;4.40;2.70;;;;;;;;;;5125136;28;20441;-79
2023/11/21 19:02:45;;;;;;;3.90;2.03;;;;;;;;;;5127677;28;20890;-79
2023/11/21 19:05:13;;;;;;;9.90;3.00;;;;;;;;;;5126432;28;20483;-79
2023/11/21 19:07:41;;;;;;;8.90;3.93;;;;;;;;;;5121771;28;20781;-77
2023/11/21 19:10:10;;;;;;;5.73;2.63;;;;;;;;;;5121952;28;20434;-78
2023/11/21 19:12:39;;;;;;;6.37;3.30;;;;;;;;;;5121596;28;20534;-78
2023/11/21 19:15:09;;;;;;;6.97;4.10;;;;;;;;;;5119785;28;20486;-80
2023/11/21 19:17:42;;;;;;;6.67;4.17;;;;;;;;;;5122239;28;20467;-77
2023/11/21 19:20:18;;;;;;;3.97;2.90;;;;;;;;;;5134530;27;20473;-77
2023/11/21 19:22:46;;;;;;;3.70;2.80;;;;;;;;;;5116718;28;20446;-77
2023/11/21 19:25:15;;;;;;;4.23;2.40;;;;;;;;;;5117791;28;20454;-77
2023/11/21 19:27:44;;;;;;;4.97;3.00;;;;;;;;;;5130313;27;20467;-79
2023/11/21 19:30:12;;;;;;;4.73;3.20;;;;;;;;;;5123626;28;20455;-78
2023/11/21 19:32:39;;;;;;;3.97;2.73;;;;;;;;;;5125774;27;20461;-78
2023/11/21 19:35:08;;;;;;;4.57;2.70;;;;;;;;;;5124196;28;20486;-79
2023/11/21 19:37:35;;;;;;;8.27;3.90;;;;;;;;;;5121252;28;20477;-79
2023/11/21 19:40:10;;;;;;;6.00;3.93;;;;;;;;;;5122245;28;20447;-77
2023/11/21 19:42:39;;;;;;;5.50;3.00;;;;;;;;;;5122184;28;20523;-79
2023/11/21 19:45:08;;;;;;;4.90;2.87;;;;;;;;;;5133846;27;20518;-79
2023/11/21 19:47:38;;;;;;;5.23;2.80;;;;;;;;;;5121346;27;20561;-79
2023/11/21 19:50:10;;;;;;;5.43;2.97;;;;;;;;;;5122293;28;20534;-77
2023/11/21 19:52:40;;;;;;;5.20;3.00;;;;;;;;;;5123180;28;20447;-78
2023/11/21 19:55:08;;;;;;;6.10;3.50;;;;;;;;;;5119011;28;20478;-77
2023/11/21 19:57:37;;;;;;;4.33;2.50;;;;;;;;;;5119725;28;20758;-81
2023/11/21 20:00:12;;;;;;;5.37;2.93;;;;;;;;;;5121143;28;20473;-79
2023/11/21 20:02:43;;;;;;;4.00;2.20;;;;;;;;;;5141104;27;20476;-79
2023/11/21 20:05:14;;;;;;;4.73;2.20;;;;;;;;;;5140934;27;20469;-78
2023/11/21 20:07:43;;;;;;;4.23;2.40;;;;;;;;;;5120132;28;20526;-78
2023/11/21 20:10:11;;;;;;;4.63;2.80;;;;;;;;;;5121565;28;20526;-80
2023/11/21 20:12:40;;;;;;;5.50;2.67;;;;;;;;;;5121853;28;20506;-79
2023/11/21 20:15:09;;;;;;;4.70;2.63;;;;;;;;;;5123971;28;20542;-78
2023/11/21 20:17:39;;;;;;;5.93;3.33;;;;;;;;;;5118007;28;20846;-78
2023/11/21 20:20:08;;;;;;;5.80;2.90;;;;;;;;;;5122685;28;20470;-79
2023/11/21 20:22:35;;;;;;;6.50;3.43;;;;;;;;;;5137837;27;20455;-79
2023/11/21 20:25:03;;;;;;;5.87;3.27;;;;;;;;;;5126766;28;20497;-81
2023/11/21 20:27:31;;;;;;;6.60;3.00;;;;;;;;;;5120343;28;20458;-80
2023/11/21 20:29:59;;;;;;;4.40;2.93;;;;;;;;;;5122743;28;20462;-79
2023/11/21 20:32:27;;;;;;;4.63;2.60;;;;;;;;;;5123185;28;20459;-79
2023/11/21 20:35:00;;;;;;;4.87;3.30;;;;;;;;;;5121725;28;20484;-78
2023/11/21 20:37:28;;;;;;;6.13;3.70;;;;;;;;;;5122321;28;20438;-79
2023/11/21 20:39:55;;;;;;;4.53;2.83;;;;;;;;;;5121257;28;20482;-80
2023/11/21 20:42:23;;;;;;;5.80;2.63;;;;;;;;;;5122813;28;21048;-79
2023/11/21 20:44:49;;;;;;;4.87;3.23;;;;;;;;;;5123246;28;20530;-78
2023/11/21 20:47:20;;;;;;;3.77;2.50;;;;;;;;;;5119951;28;20454;-79
2023/11/21 20:49:47;;;;;;;5.00;2.83;;;;;;;;;;5121398;28;20484;-79
2023/11/21 20:52:16;;;;;;;5.50;2.60;;;;;;;;;;5121369;28;20465;-80
2023/11/21 20:54:44;;;;;;;6.70;3.43;;;;;;;;;;5120420;28;20443;-78
2023/11/21 20:57:11;;;;;;;4.00;2.53;;;;;;;;;;5122854;28;20461;-79
2023/11/21 20:59:39;;;;;;;4.60;2.80;;;;;;;;;;5122796;28;20486;-80
2023/11/21 21:02:07;;;;;;;9.20;3.93;;;;;;;;;;5118592;28;20542;-78
2023/11/21 21:04:34;;;;;;;5.23;3.13;;;;;;;;;;5123064;28;20493;-79
2023/11/21 21:07:02;;;;;;;6.10;3.43;;;;;;;;;;5120088;28;20458;-79
2023/11/21 21:09:31;;;;;;;5.20;3.13;;;;;;;;;;5125575;28;20473;-80
2023/11/21 21:11:58;;;;;;;6.50;3.90;;;;;;;;;;5119657;28;20463;-79
2023/11/21 21:14:29;;;;;;;5.33;3.20;;;;;;;;;;5118558;28;20454;-78
2023/11/21 21:16:56;;;;;;;5.33;3.30;;;;;;;;;;5123326;28;20562;-79
2023/11/21 21:19:26;;;;;;;8.77;3.23;;;;;;;;;;5123329;28;20524;-79
2023/11/21 21:21:53;;;;;;;5.83;2.70;;;;;;;;;;5122496;28;20472;-78
2023/11/21 21:24:20;;;;;;;8.83;3.20;;;;;;;;;;5120502;28;20449;-79
2023/11/21 21:26:50;;;;;;;5.73;2.80;;;;;;;;;;5121154;28;20519;-79
2023/11/21 21:29:19;;;;;;;6.00;3.23;;;;;;;;;;5120604;28;20454;-79
2023/11/21 21:31:47;;;;;;;4.60;3.37;;;;;;;;;;5120458;28;20915;-79
2023/11/21 21:34:16;;;;;;;4.30;3.10;;;;;;;;;;5127178;28;20462;-78
2023/11/21 21:36:44;;;;;;;10.13;2.77;;;;;;;;;;5125129;28;20729;-78
2023/11/21 21:39:13;;;;;;;4.50;2.70;;;;;;;;;;5127191;28;20686;-80
2023/11/21 21:41:41;;;;;;;7.00;3.17;;;;;;;;;;5128039;28;20454;-80
2023/11/21 21:44:10;;;;;;;6.13;3.20;;;;;;;;;;5132119;28;20505;-80
2023/11/21 21:46:37;;;;;;;6.73;2.87;;;;;;;;;;5126191;28;20730;-79
2023/11/21 21:49:05;;;;;;;5.83;3.97;;;;;;;;;;5128555;28;20438;-78
2023/11/21 21:51:34;;;;;;;6.23;3.77;;;;;;;;;;5123994;28;20457;-80
2023/11/21 21:54:01;;;;;;;7.00;4.80;;;;;;;;;;5125551;28;20488;-80
2023/11/21 21:56:28;;;;;;;5.20;3.27;;;;;;;;;;5121738;28;20490;-79
2023/11/21 21:58:57;;;;;;;7.00;2.90;;;;;;;;;;5121833;28;20450;-79
2023/11/21 22:01:26;;;;;;;6.03;3.17;;;;;;;;;;5118383;28;20522;-79
2023/11/21 22:03:55;;;;;;;5.10;3.70;;;;;;;;;;5118553;28;20538;-80
2023/11/21 22:06:23;;;;;;;4.93;2.50;;;;;;;;;;5118839;28;20439;-79
2023/11/21 22:08:50;;;;;;;7.43;3.33;;;;;;;;;;5120520;28;20458;-79
2023/11/21 22:11:18;;;;;;;6.20;2.97;;;;;;;;;;5122447;28;20979;-79
2023/11/21 22:13:45;;;;;;;4.20;2.67;;;;;;;;;;5124781;28;20450;-79
2023/11/21 22:16:13;;;;;;;4.10;3.03;;;;;;;;;;5127375;28;20487;-78
2023/11/21 22:18:42;;;;;;;5.90;2.87;;;;;;;;;;5125971;28;20474;-80
2023/11/21 22:21:35;;;;;;;4.83;2.90;;;;;;;;;;5125855;28;20482;-78
2023/11/21 22:24:03;;;;;;;4.47;2.60;;;;;;;;;;5125810;27;20439;-78
2023/11/21 22:26:30;;;;;;;5.17;3.17;;;;;;;;;;5123773;28;20751;-79
2023/11/21 22:28:58;;;;;;;4.63;2.70;;;;;;;;;;5123689;28;20455;-78
2023/11/21 22:31:27;;;;;;;5.07;3.00;;;;;;;;;;5123676;28;20628;-79
2023/11/21 22:33:57;;;;;;;4.60;2.83;;;;;;;;;;5123345;28;20807;-78
2023/11/21 22:36:26;;;;;;;6.47;3.00;;;;;;;;;;5125022;28;20493;-78
2023/11/21 22:38:54;;;;;;;3.50;2.40;;;;;;;;;;5124530;28;21084;-79
2023/11/21 22:41:25;;;;;;;5.60;2.67;;;;;;;;;;5123702;28;20455;-78
2023/11/21 22:43:53;;;;;;;8.37;2.87;;;;;;;;;;5123804;28;20516;-81
2023/11/21 22:46:21;;;;;;;5.53;3.20;;;;;;;;;;5124066;28;20781;-81
2023/11/21 22:48:49;;;;;;;4.60;2.83;;;;;;;;;;5124512;28;20573;-78
2023/11/21 22:51:19;;;;;;;7.73;2.83;;;;;;;;;;5125517;28;20470;-81
2023/11/21 22:53:47;;;;;;;6.33;3.80;;;;;;;;;;5123174;28;20454;-79
2023/11/21 22:56:15;;;;;;;4.00;2.40;;;;;;;;;;5122944;28;20486;-80
2023/11/21 22:58:43;;;;;;;3.90;2.30;;;;;;;;;;5124575;28;20447;-79
2023/11/21 23:01:11;;;;;;;4.70;2.50;;;;;;;;;;5126242;28;20447;-79
2023/11/21 23:03:39;;;;;;;4.60;2.60;;;;;;;;;;5126591;28;20475;-79
2023/11/21 23:06:07;;;;;;;5.33;3.20;;;;;;;;;;5127018;28;20523;-79
2023/11/21 23:08:38;;;;;;;6.23;3.30;;;;;;;;;;5126252;28;20726;-80
2023/11/21 23:11:06;;;;;;;6.13;3.33;;;;;;;;;;5127887;28;20455;-80
2023/11/21 23:13:34;;;;;;;5.30;3.00;;;;;;;;;;5124803;28;20447;-80
2023/11/21 23:16:01;;;;;;;4.70;2.70;;;;;;;;;;5123866;28;20516;-80
2023/11/21 23:18:29;;;;;;;5.70;3.10;;;;;;;;;;5123332;28;20485;-78
2023/11/21 23:20:57;;;;;;;4.60;3.13;;;;;;;;;;5123478;28;20475;-79
2023/11/21 23:23:26;;;;;;;3.83;2.60;;;;;;;;;;5123657;28;20455;-79
2023/11/21 23:25:56;;;;;;;4.63;2.47;;;;;;;;;;5122774;28;20446;-78
2023/11/21 23:28:24;;;;;;;5.20;2.50;;;;;;;;;;5120816;28;20455;-81
2023/11/21 23:30:51;;;;;;;5.97;3.10;;;;;;;;;;5121680;28;20538;-79
2023/11/21 23:33:19;;;;;;;6.80;3.70;;;;;;;;;;5123011;28;20616;-79
2023/11/21 23:35:47;;;;;;;5.60;3.13;;;;;;;;;;5123654;28;20717;-78
2023/11/21 23:38:14;;;;;;;6.20;3.53;;;;;;;;;;5124604;28;20522;-79
2023/11/21 23:40:42;;;;;;;7.60;3.50;;;;;;;;;;5121399;28;20505;-80
2023/11/21 23:43:11;;;;;;;5.43;2.87;;;;;;;;;;5123375;28;20467;-80
2023/11/21 23:45:39;;;;;;;6.03;3.50;;;;;;;;;;5125951;28;20478;-78
2023/11/21 23:48:07;;;;;;;7.20;3.60;;;;;;;;;;5123807;28;20521;-78
2023/11/21 23:50:34;;;;;;;6.90;3.17;;;;;;;;;;5128022;28;20518;-79
2023/11/21 23:53:02;;;;;;;6.40;3.43;;;;;;;;;;5124276;28;20450;-79
2023/11/21 23:55:30;;;;;;;7.17;3.50;;;;;;;;;;5127678;28;20447;-80
2023/11/21 23:58:01;;;;;;;4.97;2.67;;;;;;;;;;5124888;28;20490;-80
